KFSM/FSM METAR and TAF weather

Enter ICAO airport designator
Station Type Date Time Source
KFSM METAR 2022/01/23 11:53 UTC NOAA

KFSM 231153Z 06003KT 10SM CLR M04/M08 A3021 RMK AO2 SLP233 T10441078 11022 21056 56014


Station Type Date Time Source
KFSM Decoded METAR 2022/01/23 11:53 UTC NOAA

FORT SMITH REGIONAL AIRPORT, AR, United States (KFSM) 35-20N 94-22W 140M
Jan 23, 2022 - 06:53 AM EST / 2022.01.23 1153 UTC
Wind: from the ENE (060 degrees) at 3 MPH (3 KT):0
Visibility: 10 mile(s):0
Sky conditions: clear
Temperature: 24.1 F (-4.4 C)
Dew Point: 18.0 F (-7.8 C)
Relative Humidity: 77%
Pressure (altimeter): 30.21 in. Hg (1023 hPa)
Pressure tendency: 0.04 inches (1.4 hPa) lower than three hours ago
ob: KFSM 231153Z 06003KT 10SM CLR M04/M08 A3021 RMK AO2 SLP233 T10441078 11022 21056 56014
cycle: 12

Station Type Date Time Source
KFSM TAF 2022/01/23 12:22 UTC NOAA

TAF KFSM 231120Z 2312/2412 VRB03KT P6SM SKC
FM231600 27008KT P6SM SKC
FM240000 07003KT P6SM SKC

Example: see airport list